MMMM

Details ICAO MMMM (MLM)
Name General Francisco J Mujica intl
Region Mexico
Timezone America/Mexico_City (UTC-6.0)
Plans Departing 119
Arriving 139
Stats Elevation 6,033 ft / 1,839 m (AMSL)
Location 19.849900° -101.025000°
Runways 1
Magnetic Variation 5.063° E
Sunrise 2021-03-02 13:04:18 UTC / 2021-03-02 07:04:18 Local
Sunset 2021-03-03 00:51:00 UTC / 2021-03-02 18:51:00 Local
Advertisement - Login to hide

Runways

ID Width Length Bearing (true/mag) Surface Threshold Overrun Markings Lighting
05 148 ft / 45 m 11,186 ft / 3,410 m 54.47° / 49.40° ASPHALT 0 ft / 0 m 190 ft / 58 m PREC-APP EDGE THRESHOLD ODALS
23 148 ft / 45 m 11,186 ft / 3,410 m 234.48° / 229.41° ASPHALT 0 ft / 0 m 177 ft / 54 m PREC-APP EDGE THRESHOLD SSALF

Map

Weather


0- 5 10 15 20 25 30 35+ Temperature / °C

Clouds and Precipitation
Forecast for 2021-03-02 12:00 UTC. Updated 3 hours ago

Ground ~20,000 ft ~40,000 ft Winds

METAR

Not found

TAF

TAF MMMM 021152Z 0212/0318 18005KT 6SM HZ SKC FM021800 16010KT P6SM SKC FM030300 16005KT 6SM HZ SKC FM031800 20010KT P6SM SKC

Frequencies

Recorded 122.30 MHz Morelia ATIS
Tower 118.50 MHz Morelia Tower
Approach 118.50 MHz Morelia Approach
Warning: Do not use this data for real-world aviation or navigation. No guarantee of current accuracy is given.